Latest Weather Observations for Bairnsdale

IDV60801

Issued at 4:22 pm EST Tuesday 16 July 2019 (issued every 10 minutes, with the page automatically refreshed every 10 minutes)

About weather observations | Map of weather stations | Latest weather observations for VIC | Other Formats
Station Details ID: 085279 Name: BAIRNSDALE AIRPORT Lat: -37.88 Lon: 147.57 Height: 49.4 m
Data from the previous 72 hours. | See also: Recent months at Bairnsdale
Date/Time
EST
Temp
°C
App
Temp
°C
Dew
Point
°C
Rel
Hum
%
Delta-T
°C
Wind Press
QNH
hPa
Press
MSL
hPa
Rain since
9am
mm
Dir  Spd
km/h
Gust
km/h
Spd
kts
Gust
kts
16/04:00pm 13.3 7.3 7.1 66 3.0 W 28 39 15 21 1018.3 1018.4 0.0
16/03:30pm 13.3 6.9 7.1 66 3.0 WSW 30 39 16 21 1018.3 1018.4 0.0
16/03:00pm 13.5 6.7 7.1 65 3.1 WSW 32 44 17 24 1018.3 1018.4 0.0
16/02:30pm 14.1 8.0 6.7 61 3.6 W 28 46 15 25 1017.9 1018.0 0.0
16/02:25pm 14.1 8.1 6.9 62 3.5 W 28 46 15 25 1017.8 1017.9 0.0
16/02:00pm 14.0 7.5 6.6 61 3.6 W 30 41 16 22 1018.0 1018.1 0.0
16/01:30pm 14.4 8.0 7.0 61 3.6 W 30 39 16 21 1018.0 1018.1 0.0
16/01:08pm 14.1 7.1 6.2 59 3.8 W 32 50 17 27 1018.1 1018.2 0.0
16/01:00pm 14.2 8.5 6.6 60 3.7 W 26 35 14 19 1018.2 1018.3 0.0
16/12:30pm 13.9 6.0 6.3 60 3.6 W 37 52 20 28 1018.5 1018.6 0.0
16/12:01pm 14.2 6.1 7.0 62 3.5 W 39 57 21 31 1018.6 1018.7 0.0
16/12:00pm 14.0 5.4 6.6 61 3.6 W 41 57 22 31 1018.6 1018.7 0.0
16/11:30am 13.0 3.5 6.6 65 3.1 W 46 65 25 35 1019.2 1019.3 0.0
16/11:00am 13.1 4.2 6.9 66 3.0 WSW 43 61 23 33 1019.7 1019.8 0.0
16/10:30am 13.1 4.6 6.9 66 3.0 W 41 61 22 33 1019.8 1019.9 0.0
16/10:02am 12.8 5.3 6.4 65 3.1 W 35 54 19 29 1019.7 1019.8 0.0
16/10:00am 12.6 5.5 6.4 66 2.9 W 33 50 18 27 1019.7 1019.8 0.0
16/09:30am 12.3 3.2 6.1 66 2.9 WSW 43 70 23 38 1019.7 1019.8 0.0
16/09:22am 12.5 4.1 5.7 63 3.2 WSW 39 70 21 38 1019.6 1019.7 0.0
16/09:00am 12.5 5.7 5.2 61 3.4 W 30 48 16 26 1019.2 1019.3 0.0
16/08:30am 11.2 4.1 5.7 69 2.6 W 32 46 17 25 1018.8 1018.9 0.0
16/08:00am 11.5 4.5 6.0 69 2.6 WSW 32 46 17 25 1019.2 1019.3 0.0
16/07:30am 11.6 4.5 5.7 67 2.7 WSW 32 43 17 23 1019.0 1019.1 0.0
16/07:06am 11.8 5.4 5.4 65 3.0 W 28 46 15 25 1018.9 1019.0 0.0
16/07:00am 11.5 6.7 5.4 66 2.8 W 20 30 11 16 1018.9 1019.0 0.0
16/06:30am 11.5 6.3 5.4 66 2.8 W 22 33 12 18 1018.4 1018.5 0.0
16/06:00am 11.6 6.4 5.3 65 2.9 W 22 28 12 15 1018.3 1018.4 0.0
16/05:30am 11.7 6.4 5.1 64 3.0 W 22 35 12 19 1018.2 1018.3 0.0
16/05:00am 11.8 5.0 5.2 64 3.0 WSW 30 39 16 21 1018.0 1018.1 0.0
16/04:45am 11.8 5.4 5.4 65 3.0 WSW 28 48 15 26 1017.8 1017.9 0.0
16/04:30am 11.8 5.0 5.2 64 3.0 W 30 39 16 21 1017.9 1018.0 0.0
16/04:00am 11.4 4.7 5.5 67 2.7 WSW 30 44 16 24 1018.0 1018.1 0.0
16/03:30am 11.4 2.9 5.3 66 2.8 WSW 39 56 21 30 1018.1 1018.2 0.0
16/03:00am 11.7 3.6 5.3 65 2.9 WSW 37 56 20 30 1018.0 1018.1 0.0
16/02:30am 11.5 3.1 5.4 66 2.8 WSW 39 57 21 31 1018.3 1018.4 0.0
16/02:15am 11.3 4.2 5.6 68 2.6 WSW 32 50 17 27 1018.5 1018.6 0.0
16/02:00am 11.4 4.9 6.3 71 2.4 W 30 46 16 25 1018.6 1018.7 0.0
16/01:30am 11.4 4.5 6.5 72 2.3 WSW 32 46 17 25 1018.5 1018.6 0.0
16/01:12am 11.8 4.0 6.7 71 2.4 WSW 37 57 20 31 1018.4 1018.5 0.0
16/01:00am 11.7 3.9 6.8 72 2.3 WSW 37 52 20 28 1018.2 1018.3 0.0
16/12:30am 11.4 5.3 8.3 81 1.5 W 30 50 16 27 1018.6 1018.7 0.0
16/12:00am 11.4 5.3 8.3 81 1.5 WSW 30 48 16 26 1018.9 1019.0 0.0
 
Date/Time
EST
Temp
°C
App
Temp
°C
Dew
Point
°C
Rel
Hum
%
Delta-T
°C
Wind Press
QNH
hPa
Press
MSL
hPa
Rain since
9am
mm
Dir  Spd
km/h
Gust
km/h
Spd
kts
Gust
kts
15/11:57pm 11.6 5.6 8.5 81 1.5 WSW 30 48 16 26 1018.9 1019.0 0.0
15/11:30pm 12.0 5.3 8.1 77 1.9 WSW 33 44 18 24 1018.8 1018.9 0.0
15/11:00pm 12.3 5.7 7.8 74 2.2 WSW 32 54 17 29 1019.1 1019.2 0.0
15/10:31pm 12.4 5.6 7.9 74 2.2 W 33 52 18 28 1018.8 1018.9 0.0
15/10:30pm 12.5 5.4 8.0 74 2.2 W 35 52 19 28 1018.8 1018.9 0.0
15/10:00pm 12.8 5.7 7.9 72 2.4 WSW 35 56 19 30 1018.7 1018.8 0.0
15/09:30pm 13.0 5.1 7.7 70 2.6 W 39 52 21 28 1018.6 1018.7 0.0
15/09:00pm 13.2 5.9 7.2 67 2.9 W 35 56 19 30 1018.1 1018.2 0.0
15/08:57pm 13.2 6.3 7.2 67 2.9 W 33 56 18 30 1018.1 1018.2 0.0
15/08:30pm 13.0 6.8 6.1 63 3.3 W 28 41 15 22 1018.3 1018.4 0.0
15/08:00pm 13.0 7.2 6.1 63 3.3 W 26 33 14 18 1018.3 1018.4 0.0
15/07:30pm 12.7 7.2 6.1 64 3.1 WNW 24 32 13 17 1018.0 1018.1 0.0
15/07:00pm 12.5 6.3 6.1 65 3.0 W 28 43 15 23 1017.9 1018.0 0.0
15/06:30pm 12.5 5.4 6.3 66 2.9 W 33 43 18 23 1017.7 1017.8 0.0
15/06:00pm 12.6 6.0 6.2 65 3.0 W 30 48 16 26 1017.6 1017.7 0.0
15/05:30pm 12.5 5.7 6.8 68 2.7 W 32 43 17 23 1017.6 1017.7 0.0
15/05:00pm 12.5 6.8 6.8 68 2.7 W 26 35 14 19 1017.7 1017.8 0.0
15/04:30pm 12.5 7.2 6.8 68 2.7 W 24 33 13 18 1017.3 1017.4 0.0
15/04:00pm 12.3 5.3 6.8 69 2.6 WSW 33 43 18 23 1017.5 1017.6 0.0
15/03:30pm 13.0 5.6 6.8 66 3.0 WSW 35 54 19 29 1017.6 1017.7 0.0
15/03:23pm 12.6 5.1 6.4 66 3.0 WSW 35 54 19 29 1017.6 1017.7 0.0
15/03:00pm 12.7 6.2 6.5 66 3.0 W 30 46 16 25 1017.6 1017.7 0.0
15/02:30pm 12.9 5.7 6.0 63 3.3 W 33 56 18 30 1017.9 1018.0 0.0
15/02:00pm 13.3 5.3 5.9 61 3.5 W 37 59 20 32 1017.6 1017.7 0.0
15/01:40pm 13.1 4.7 5.5 60 3.6 W 39 57 21 31 1017.6 1017.7 0.0
15/01:30pm 13.2 4.9 5.9 61 3.5 W 39 54 21 29 1017.6 1017.7 0.0
15/01:01pm 12.5 5.1 5.2 61 3.4 W 33 57 18 31 1018.0 1018.1 0.0
15/01:00pm 12.4 5.0 5.1 61 3.4 W 33 50 18 27 1018.0 1018.1 0.0
15/12:30pm 12.4 5.6 5.1 61 3.4 W 30 50 16 27 1018.6 1018.7 0.0
15/12:26pm 11.9 4.7 4.9 62 3.2 W 32 50 17 27 1018.7 1018.8 0.0
15/12:00pm 12.0 4.9 5.4 64 3.1 WSW 32 44 17 24 1018.8 1018.9 0.0
15/11:32am 11.6 4.8 5.0 64 3.0 W 30 50 16 27 1019.1 1019.2 0.0
15/11:30am 11.6 4.8 5.3 65 2.9 W 30 43 16 23 1019.1 1019.2 0.0
15/11:00am 11.4 4.2 5.1 65 2.9 W 32 43 17 23 1019.6 1019.7 0.0
15/10:30am 10.9 4.5 5.0 67 2.7 W 28 41 15 22 1020.0 1020.1 0.0
15/10:00am 10.6 4.3 5.6 71 2.3 W 28 37 15 20 1019.5 1019.6 0.0
15/09:30am 10.2 5.1 5.8 74 2.0 W 22 30 12 16 1019.6 1019.7 0.0
15/09:00am 9.5 3.2 5.5 76 1.8 W 28 39 15 21 1019.1 1019.2 8.4
15/08:30am 8.9 3.3 5.3 78 1.6 W 24 33 13 18 1018.8 1018.9 8.4
15/08:00am 8.1 3.2 5.0 81 1.4 W 20 28 11 15 1018.2 1018.3 8.4
15/07:30am 8.0 3.1 4.9 81 1.4 W 20 30 11 16 1018.0 1018.1 8.4
15/07:00am 7.8 2.1 4.9 82 1.3 W 24 33 13 18 1017.5 1017.6 8.4
15/06:30am 7.8 2.4 4.7 81 1.4 W 22 32 12 17 1017.0 1017.1 8.4
15/06:00am 7.8 2.1 4.7 81 1.4 W 24 33 13 18 1016.4 1016.5 8.4
15/05:30am 8.0 1.9 4.9 81 1.4 W 26 35 14 19 1015.9 1016.0 8.4
15/05:00am 8.1 1.3 4.9 80 1.4 W 30 44 16 24 1015.0 1015.1 8.4
15/04:30am 8.1 2.1 5.4 83 1.2 W 26 39 14 21 1014.5 1014.6 8.4
15/04:00am 8.1 1.7 5.4 83 1.2 W 28 41 15 22 1013.9 1014.0 8.4
15/03:30am 8.1 0.9 4.9 80 1.4 WSW 32 46 17 25 1013.5 1013.6 8.4
15/03:00am 8.3 1.3 5.8 84 1.1 WSW 32 46 17 25 1013.1 1013.2 8.4
15/02:30am 8.5 3.0 6.1 85 1.1 W 24 32 13 17 1013.0 1013.1 8.4
15/02:00am 8.4 2.2 6.0 85 1.1 W 28 37 15 20 1012.4 1012.5 8.4
15/01:30am 8.5 2.3 6.3 86 1.0 W 28 41 15 22 1012.0 1012.0 8.4
15/01:00am 8.5 3.5 6.5 87 0.9 WSW 22 32 12 17 1011.7 1011.7 8.0
15/12:30am 8.5 2.4 6.8 89 0.8 W 28 39 15 21 1011.1 1011.1 7.8
15/12:00am 8.2 2.5 6.7 90 0.7 W 26 35 14 19 1011.3 1011.3 7.6
 
Date/Time
EST
Temp
°C
App
Temp
°C
Dew
Point
°C
Rel
Hum
%
Delta-T
°C
Wind Press
QNH
hPa
Press
MSL
hPa
Rain since
9am
mm
Dir  Spd
km/h
Gust
km/h
Spd
kts
Gust
kts
14/11:30pm 8.1 2.0 6.4 89 0.8 WNW 28 41 15 22 1010.9 1010.9 7.2
14/11:00pm 8.4 1.6 6.9 90 0.7 W 32 46 17 25 1011.1 1011.1 7.2
14/10:30pm 8.2 1.7 6.5 89 0.8 W 30 43 16 23 1011.0 1011.0 6.0
14/10:00pm 8.2 1.4 6.7 90 0.7 W 32 46 17 25 1011.1 1011.1 5.6
14/09:40pm 8.2 1.3 6.5 89 0.8 W 32 50 17 27 1011.0 1011.0 5.2
14/09:30pm 8.4 0.9 6.5 88 0.9 W 35 46 19 25 1011.2 1011.2 4.8
14/09:00pm 8.2 0.7 6.2 87 0.9 W 35 54 19 29 1011.4 1011.4 4.4
14/08:37pm 8.7 1.9 6.7 87 0.9 W 32 57 17 31 1011.3 1011.3 4.0
14/08:30pm 8.3 2.6 6.6 89 0.8 W 26 35 14 19 1011.4 1011.4 3.8
14/08:00pm 8.6 2.5 6.4 86 1.0 W 28 41 15 22 1011.9 1011.9 3.0
14/07:30pm 8.8 3.7 6.1 83 1.2 W 22 33 12 18 1011.3 1011.3 2.0
14/07:00pm 9.5 2.4 5.3 75 1.9 W 32 46 17 25 1010.7 1010.7 1.6
14/06:30pm 8.8 3.0 6.3 84 1.2 W 26 33 14 18 1010.8 1010.8 1.6
14/06:00pm 9.3 3.0 5.5 77 1.7 W 28 35 15 19 1010.3 1010.3 0.4
14/05:30pm 10.4 3.1 4.5 67 2.6 WNW 32 56 17 30 1010.2 1010.2 0.0
14/05:26pm 10.6 3.3 4.3 65 2.8 WNW 32 56 17 30 1010.1 1010.1 0.0
14/05:00pm 11.5 3.4 3.3 57 3.6 WNW 35 48 19 26 1010.0 1010.0 0.0
14/04:30pm 11.7 2.5 3.5 57 3.6 W 41 59 22 32 1010.1 1010.1 0.0
14/04:00pm 12.5 3.3 3.5 54 4.0 W 41 59 22 32 1010.2 1010.2 0.0
14/03:30pm 12.9 4.0 3.0 51 4.4 WNW 39 59 21 32 1010.0 1010.0 0.0
14/03:00pm 13.3 3.4 2.5 48 4.8 WNW 44 65 24 35 1009.7 1009.7 0.0
14/02:30pm 13.4 4.1 2.9 49 4.7 WNW 41 74 22 40 1009.8 1009.8 0.0
14/02:00pm 13.6 4.4 3.4 50 4.6 WNW 41 61 22 33 1010.3 1010.3 0.0
14/01:30pm 13.6 5.0 2.5 47 4.9 WNW 37 57 20 31 1010.7 1010.7 0.0
14/01:00pm 14.1 4.4 3.0 47 5.0 WNW 43 65 23 35 1011.1 1011.1 0.0
14/12:30pm 13.8 4.6 3.3 49 4.7 WNW 41 65 22 35 1012.2 1012.2 0.0
14/12:00pm 12.8 3.6 3.5 53 4.2 WNW 41 59 22 32 1012.4 1012.5 0.0
14/11:51am 12.8 3.5 3.2 52 4.3 WNW 41 59 22 32 1012.6 1012.7 0.0
14/11:30am 12.6 2.4 3.0 52 4.2 WNW 46 59 25 32 1013.3 1013.4 0.0
14/11:13am 13.0 4.6 3.9 54 4.1 WNW 37 57 20 31 1014.1 1014.2 0.0
14/11:00am 12.2 4.1 3.4 55 3.9 WNW 35 48 19 26 1014.6 1014.7 0.0
14/10:52am 11.9 5.2 3.4 56 3.8 NW 28 46 15 25 1014.8 1014.9 0.0
14/10:30am 10.8 4.3 2.9 58 3.4 NW 26 35 14 19 1015.0 1015.1 0.0
14/10:00am 9.3 3.9 2.6 63 2.8 NW 20 32 11 17 1015.2 1015.3 0.0
14/09:30am 9.2 3.0 2.1 61 3.0 NW 24 35 13 19 1015.0 1015.1 0.0
14/09:00am 8.8 2.6 2.2 63 2.8 NW 24 35 13 19 1015.3 1015.4 8.8
14/08:30am 7.2 1.9 1.7 68 2.2 NNW 19 26 10 14 1016.1 1016.2 8.8
14/08:00am 6.4 1.8 1.5 71 2.0 NW 15 20 8 11 1016.7 1016.8 8.8
14/07:30am 5.3 1.0 1.2 75 1.6 NW 13 17 7 9 1017.0 1017.1 8.8
14/07:00am 5.0 1.1 0.9 75 1.6 NW 11 15 6 8 1017.0 1017.1 8.8
14/06:30am 4.7 -0.1 0.5 74 1.6 NW 15 22 8 12 1017.0 1017.1 8.8
14/06:00am 4.5 0.1 0.5 75 1.5 NW 13 19 7 10 1017.1 1017.2 8.8
14/05:30am 4.6 0.6 0.6 75 1.5 NW 11 17 6 9 1017.3 1017.4 8.8
14/05:00am 4.9 0.2 1.2 77 1.4 NW 15 19 8 10 1017.6 1017.7 8.8
14/04:30am 4.9 0.6 1.2 77 1.5 WNW 13 17 7 9 1017.8 1017.9 8.8
14/04:00am 5.1 0.8 1.0 75 1.6 WNW 13 17 7 9 1018.0 1018.1 8.8
14/03:30am 5.5 1.3 1.6 76 1.6 WNW 13 19 7 10 1018.5 1018.6 8.8
14/03:00am 5.7 1.6 2.2 78 1.4 WNW 13 17 7 9 1019.1 1019.2 8.8
14/02:30am 4.9 0.8 2.1 82 1.1 WNW 13 15 7 8 1019.4 1019.5 8.8
14/02:00am 5.9 1.1 2.4 78 1.4 WNW 17 22 9 12 1019.5 1019.6 8.8
14/01:30am 6.3 1.2 3.1 80 1.3 WNW 19 26 10 14 1020.0 1020.1 8.8
14/01:00am 6.1 1.0 3.3 82 1.2 WNW 19 24 10 13 1020.3 1020.4 8.8
14/12:30am 6.9 0.5 3.0 76 1.6 W 26 37 14 20 1020.3 1020.4 8.8
14/12:00am 6.9 0.4 2.8 75 1.7 W 26 33 14 18 1020.5 1020.6 8.8
 
Date/Time
EST
Temp
°C
App
Temp
°C
Dew
Point
°C
Rel
Hum
%
Delta-T
°C
Wind Press
QNH
hPa
Press
MSL
hPa
Rain since
9am
mm
Dir  Spd
km/h
Gust
km/h
Spd
kts
Gust
kts
13/11:30pm 6.5 1.4 2.8 77 1.5 WNW 19 26 10 14 1020.7 1020.8 8.8
13/11:00pm 6.1 0.7 2.6 78 1.4 WNW 20 26 11 14 1020.4 1020.5 8.8
13/10:30pm 6.0 0.6 2.5 78 1.4 WNW 20 28 11 15 1020.0 1020.1 8.8
13/10:00pm 6.0 0.8 2.3 77 1.5 WNW 19 22 10 12 1020.2 1020.3 8.8
13/09:30pm 5.8 1.4 2.6 80 1.3 NW 15 20 8 11 1020.0 1020.1 8.8
13/09:00pm 5.4 0.6 2.4 81 1.2 NW 17 20 9 11 1019.7 1019.8 8.8
13/08:30pm 6.1 0.7 2.7 79 1.4 WNW 20 28 11 15 1019.2 1019.3 8.8
13/08:00pm 6.2 0.1 2.7 78 1.4 W 24 33 13 18 1018.8 1018.9 8.8
13/07:30pm 6.0 0.0 3.2 82 1.2 W 24 33 13 18 1018.4 1018.5 8.8
13/07:00pm 5.9 -0.4 3.7 86 0.9 W 26 37 14 20 1018.3 1018.4 8.8
13/06:39pm 5.8 -0.1 4.0 88 0.8 W 24 35 13 19 1017.9 1018.0 8.8
13/06:30pm 5.8 -0.1 4.1 89 0.7 WSW 24 32 13 17 1018.2 1018.3 8.6
13/06:09pm 6.2 -1.2 3.9 85 1.0 W 32 57 17 31 1017.9 1018.0 6.8
13/06:07pm 6.3 -0.3 4.0 85 1.0 W 28 48 15 26 1017.7 1017.8 6.6
13/06:00pm 6.0 0.1 3.7 85 1.0 W 24 35 13 19 1017.5 1017.6 6.4
13/05:30pm 5.7 -0.3 3.4 85 1.0 WNW 24 33 13 18 1016.9 1017.0 6.4
13/05:00pm 6.0 0.9 4.3 89 0.7 W 20 30 11 16 1016.4 1016.5 6.4
13/04:30pm 6.1 1.1 4.6 90 0.6 WSW 20 30 11 16 1016.2 1016.3 6.0
13/04:25pm 6.1 1.1 4.6 90 0.6 W 20 30 11 16 1016.0 1016.1 6.0

Other formats

Comma delimited format used in spreadsheet applications
http://www.bom.gov.au/fwo/IDV60801/IDV60801.94912.axf

JavaScript Object Notation format (JSON) in row-major order
http://www.bom.gov.au/fwo/IDV60801/IDV60801.94912.json

Data quality

Most of these data are generated automatically and are frequently updated. Quality checks on data are not normally performed. It is possible for incorrect values to appear. Refer to information at About Latest Weather Observations and please check the disclaimer before using these data.